Time;durP1;ratioP1;P1;durP2;ratioP2;P2;SDS_P1;SDS_P2;PMS_P1;PMS_P2;Temp;Humidity;BMP_temperature;BMP_pressure;BME280_temperature;BME280_humidity;BME280_pressure;Samples;Min_cycle;Max_cycle;Signal;HPM_P1;HPM_P2
2021/01/30 00:00:26;;;;;;;3.83;2.25;;;;;;;;;;5075149;28;20054;-76
2021/01/30 00:02:52;;;;;;;7.13;2.90;;;;;;;;;;5075764;28;20040;-77
2021/01/30 00:05:19;;;;;;;2.35;1.60;;;;;;;;;;5075680;28;20032;-77
2021/01/30 00:07:45;;;;;;;5.95;1.88;;;;;;;;;;5056126;28;20036;-77
2021/01/30 00:10:12;;;;;;;3.97;1.75;;;;;;;;;;5056998;28;20062;-77
2021/01/30 00:12:38;;;;;;;2.70;1.70;;;;;;;;;;5058819;28;20428;-77
2021/01/30 00:15:04;;;;;;;4.00;1.30;;;;;;;;;;5074950;28;20119;-77
2021/01/30 00:17:29;;;;;;;1.92;1.33;;;;;;;;;;5074801;28;20075;-76
2021/01/30 00:19:55;;;;;;;2.83;1.42;;;;;;;;;;5074045;28;20032;-76
2021/01/30 00:22:20;;;;;;;5.95;1.50;;;;;;;;;;5074491;28;20036;-76
2021/01/30 00:24:48;;;;;;;3.60;1.40;;;;;;;;;;5056878;28;20055;-77
2021/01/30 00:27:18;;;;;;;2.53;1.58;;;;;;;;;;5075788;28;20044;-77
2021/01/30 00:29:44;;;;;;;2.50;1.45;;;;;;;;;;5057714;28;20029;-77
2021/01/30 00:32:11;;;;;;;3.00;1.48;;;;;;;;;;5076031;28;20039;-77
2021/01/30 00:34:37;;;;;;;2.40;1.10;;;;;;;;;;5076311;28;20047;-77
2021/01/30 00:37:13;;;;;;;2.03;1.02;;;;;;;;;;5076338;28;20036;-77
2021/01/30 00:39:38;;;;;;;1.00;0.90;;;;;;;;;;5076440;28;20394;-77
2021/01/30 00:42:05;;;;;;;1.80;0.80;;;;;;;;;;5041251;28;20033;-77
2021/01/30 00:44:31;;;;;;;1.92;0.80;;;;;;;;;;5058387;28;20052;-77
2021/01/30 00:46:58;;;;;;;0.80;0.80;;;;;;;;;;5075908;28;20397;-77
2021/01/30 00:49:24;;;;;;;1.20;1.10;;;;;;;;;;5057085;28;20028;-77
2021/01/30 00:51:50;;;;;;;2.13;1.60;;;;;;;;;;5057544;28;20478;-77
2021/01/30 00:54:15;;;;;;;1.85;1.60;;;;;;;;;;5058517;28;20055;-77
2021/01/30 00:56:41;;;;;;;1.73;1.50;;;;;;;;;;5040972;28;20115;-77
2021/01/30 00:59:08;;;;;;;1.60;1.50;;;;;;;;;;5076390;28;20042;-77
2021/01/30 01:01:37;;;;;;;1.83;1.73;;;;;;;;;;5057574;28;20032;-77
2021/01/30 01:04:06;;;;;;;1.80;1.70;;;;;;;;;;5057474;28;20421;-76
2021/01/30 01:06:33;;;;;;;2.10;1.90;;;;;;;;;;5076716;28;20060;-77
2021/01/30 01:08:59;;;;;;;5.20;1.90;;;;;;;;;;5076376;28;20059;-77
2021/01/30 01:11:24;;;;;;;3.42;1.92;;;;;;;;;;5057330;28;20048;-77
2021/01/30 01:13:50;;;;;;;2.28;1.98;;;;;;;;;;5074333;28;20044;-77
2021/01/30 01:16:15;;;;;;;3.67;1.88;;;;;;;;;;5074492;28;20032;-77
2021/01/30 01:18:41;;;;;;;1.42;1.33;;;;;;;;;;5057630;28;20041;-77
2021/01/30 01:21:06;;;;;;;1.42;1.33;;;;;;;;;;5077141;28;20386;-77
2021/01/30 01:23:31;;;;;;;1.35;1.25;;;;;;;;;;5078864;28;20121;-77
2021/01/30 01:25:57;;;;;;;1.50;1.40;;;;;;;;;;5079120;28;20040;-77
2021/01/30 01:28:22;;;;;;;2.80;1.50;;;;;;;;;;5061092;28;20102;-77
2021/01/30 01:30:47;;;;;;;2.22;1.60;;;;;;;;;;5079287;28;20062;-77
2021/01/30 01:33:13;;;;;;;1.33;1.23;;;;;;;;;;5079931;28;20052;-77
2021/01/30 01:35:38;;;;;;;2.20;1.30;;;;;;;;;;5080151;28;20059;-77
2021/01/30 01:38:04;;;;;;;1.50;1.40;;;;;;;;;;5079765;28;20028;-77
2021/01/30 01:40:36;;;;;;;1.45;1.35;;;;;;;;;;5080509;28;20036;-77
2021/01/30 01:43:11;;;;;;;1.25;1.15;;;;;;;;;;5060968;28;20079;-77
2021/01/30 01:45:37;;;;;;;1.65;1.55;;;;;;;;;;5079443;28;20451;-76
2021/01/30 01:48:07;;;;;;;2.15;1.58;;;;;;;;;;5062022;28;20048;-77
2021/01/30 01:50:43;;;;;;;2.85;1.40;;;;;;;;;;5079589;28;20044;-77
2021/01/30 01:53:11;;;;;;;;;;;;;;;;;;5080616;28;20489;-77
2021/01/30 01:55:40;;;;;;;1.40;1.30;;;;;;;;;;5062664;28;19913;-77
2021/01/30 01:58:06;;;;;;;1.52;1.42;;;;;;;;;;5079780;28;20029;-77
2021/01/30 02:00:31;;;;;;;2.38;1.52;;;;;;;;;;5081960;28;20115;-77
2021/01/30 02:02:57;;;;;;;1.58;1.48;;;;;;;;;;5079765;28;20119;-77
2021/01/30 02:05:27;;;;;;;1.67;1.58;;;;;;;;;;5080564;28;20048;-77
2021/01/30 02:07:56;;;;;;;1.52;1.35;;;;;;;;;;5079708;28;20435;-77
2021/01/30 02:10:24;;;;;;;1.40;1.30;;;;;;;;;;5079704;28;20520;-76
2021/01/30 02:12:52;;;;;;;1.50;1.40;;;;;;;;;;5079649;28;20064;-76
2021/01/30 02:15:19;;;;;;;1.98;1.50;;;;;;;;;;5079814;28;20482;-77
2021/01/30 02:18:16;;;;;;;2.40;1.58;;;;;;;;;;5079531;28;20117;-76
2021/01/30 02:21:12;;;;;;;2.00;1.80;;;;;;;;;;5041989;28;20036;-77
2021/01/30 02:24:06;;;;;;;1.90;1.70;;;;;;;;;;5068210;28;20076;-77
2021/01/30 02:27:09;;;;;;;2.13;1.90;;;;;;;;;;5062697;28;20032;-77
2021/01/30 02:29:53;;;;;;;1.80;1.70;;;;;;;;;;5080701;28;20040;-77
2021/01/30 02:32:44;;;;;;;2.03;1.83;;;;;;;;;;5081677;28;20040;-77
2021/01/30 02:35:33;;;;;;;1.80;1.70;;;;;;;;;;5037860;28;20044;-77
2021/01/30 02:38:02;;;;;;;2.10;1.90;;;;;;;;;;5084997;28;20036;-77
2021/01/30 02:40:34;;;;;;;2.05;1.85;;;;;;;;;;5085692;28;20071;-77
2021/01/30 02:43:07;;;;;;;2.15;1.95;;;;;;;;;;5086167;28;20103;-77
2021/01/30 02:45:37;;;;;;;2.10;1.90;;;;;;;;;;5067997;28;20050;-77
2021/01/30 02:48:11;;;;;;;1.98;1.80;;;;;;;;;;5067497;28;20047;-77
2021/01/30 02:50:45;;;;;;;2.58;2.38;;;;;;;;;;5083282;28;20032;-77
2021/01/30 02:53:14;;;;;;;2.70;2.35;;;;;;;;;;5084440;28;20519;-77
2021/01/30 02:55:39;;;;;;;2.35;2.15;;;;;;;;;;5067146;28;20119;-77
2021/01/30 02:58:05;;;;;;;2.30;2.10;;;;;;;;;;5083459;28;20040;-77
2021/01/30 03:00:33;;;;;;;2.58;2.20;;;;;;;;;;5065690;28;20074;-77
2021/01/30 03:02:58;;;;;;;3.13;2.53;;;;;;;;;;5081835;28;20029;-77
2021/01/30 03:05:24;;;;;;;2.40;2.20;;;;;;;;;;5082267;28;20055;-78
2021/01/30 03:07:56;;;;;;;2.83;2.50;;;;;;;;;;5083406;28;20608;-77
2021/01/30 03:10:36;;;;;;;2.95;2.38;;;;;;;;;;5064773;28;20104;-78
2021/01/30 03:13:35;;;;;;;3.22;2.28;;;;;;;;;;5075751;28;20489;-77
2021/01/30 03:16:08;;;;;;;2.40;2.00;;;;;;;;;;5075324;28;20371;-78
2021/01/30 03:18:38;;;;;;;4.28;2.53;;;;;;;;;;5075254;28;20040;-78
2021/01/30 03:21:05;;;;;;;4.03;3.05;;;;;;;;;;5075463;28;20032;-78
2021/01/30 03:23:31;;;;;;;4.47;3.47;;;;;;;;;;5075422;28;20101;-78
2021/01/30 03:26:00;;;;;;;4.43;3.58;;;;;;;;;;5075486;28;20426;-78
2021/01/30 03:28:26;;;;;;;5.18;4.18;;;;;;;;;;5076920;28;20029;-78
2021/01/30 03:30:52;;;;;;;5.18;4.30;;;;;;;;;;5075430;28;20032;-78
2021/01/30 03:33:17;;;;;;;6.97;4.68;;;;;;;;;;5075446;28;20047;-78
2021/01/30 03:35:43;;;;;;;5.18;3.78;;;;;;;;;;5075401;28;20037;-78
2021/01/30 03:38:08;;;;;;;4.95;4.07;;;;;;;;;;5074534;28;20035;-77
2021/01/30 03:40:34;;;;;;;5.10;4.38;;;;;;;;;;5075538;28;20036;-77
2021/01/30 03:42:59;;;;;;;6.60;4.30;;;;;;;;;;5075353;28;20028;-77
2021/01/30 03:45:28;;;;;;;4.70;4.20;;;;;;;;;;5057929;28;20115;-77
2021/01/30 03:47:53;;;;;;;6.40;4.55;;;;;;;;;;5076647;28;20517;-78
2021/01/30 03:50:19;;;;;;;5.28;4.40;;;;;;;;;;5076419;28;20024;-77
2021/01/30 03:52:45;;;;;;;5.22;4.28;;;;;;;;;;5058035;28;20036;-77
2021/01/30 03:55:11;;;;;;;7.13;4.95;;;;;;;;;;5058414;28;20032;-78
2021/01/30 03:57:37;;;;;;;5.30;4.55;;;;;;;;;;5058924;28;20043;-78
2021/01/30 04:00:07;;;;;;;4.28;3.70;;;;;;;;;;5077989;28;20040;-77
2021/01/30 04:02:37;;;;;;;5.55;4.75;;;;;;;;;;5077978;28;20457;-77
2021/01/30 04:05:02;;;;;;;5.28;4.43;;;;;;;;;;5078037;28;20055;-78
2021/01/30 04:07:28;;;;;;;5.72;4.68;;;;;;;;;;5060491;28;20048;-78
2021/01/30 04:09:53;;;;;;;4.90;4.25;;;;;;;;;;5078800;28;20557;-77
2021/01/30 04:12:18;;;;;;;6.00;4.68;;;;;;;;;;5078759;28;20131;-77
2021/01/30 04:14:44;;;;;;;5.53;4.60;;;;;;;;;;5077039;28;20040;-77
2021/01/30 04:17:09;;;;;;;5.90;4.78;;;;;;;;;;5077700;28;20048;-78
2021/01/30 04:19:37;;;;;;;5.95;5.10;;;;;;;;;;5079054;28;20100;-77
2021/01/30 04:22:04;;;;;;;6.97;5.03;;;;;;;;;;5078469;28;20032;-77
2021/01/30 04:24:29;;;;;;;6.30;5.18;;;;;;;;;;5078342;28;20044;-77
2021/01/30 04:26:55;;;;;;;6.25;4.88;;;;;;;;;;5077518;28;20044;-77
2021/01/30 04:29:20;;;;;;;7.95;4.60;;;;;;;;;;5077400;28;20082;-77
2021/01/30 04:31:45;;;;;;;5.03;3.97;;;;;;;;;;5058801;28;20036;-77
2021/01/30 04:34:11;;;;;;;4.72;3.78;;;;;;;;;;5077702;28;20040;-77
2021/01/30 04:36:36;;;;;;;5.57;3.75;;;;;;;;;;5077344;28;20111;-77
2021/01/30 04:39:03;;;;;;;4.97;4.05;;;;;;;;;;5078024;28;20028;-77
2021/01/30 04:41:41;;;;;;;5.40;4.00;;;;;;;;;;5059911;28;20032;-77
2021/01/30 04:44:12;;;;;;;5.75;4.63;;;;;;;;;;5077047;28;20063;-77
2021/01/30 04:46:56;;;;;;;4.90;3.65;;;;;;;;;;5077642;28;20059;-77
2021/01/30 04:49:33;;;;;;;4.43;3.53;;;;;;;;;;5058788;28;20355;-77
2021/01/30 04:52:12;;;;;;;4.20;3.50;;;;;;;;;;5077119;28;20398;-77
2021/01/30 04:55:14;;;;;;;6.00;3.60;;;;;;;;;;5077165;28;20044;-77
2021/01/30 04:57:51;;;;;;;4.10;3.05;;;;;;;;;;5081105;28;20035;-76
2021/01/30 05:00:31;;;;;;;5.10;3.13;;;;;;;;;;5063739;28;20041;-77
2021/01/30 05:03:24;;;;;;;4.13;3.45;;;;;;;;;;5082075;28;20032;-77
2021/01/30 05:05:54;;;;;;;6.07;4.38;;;;;;;;;;5081748;28;20036;-76
2021/01/30 05:08:35;;;;;;;5.40;3.72;;;;;;;;;;5063658;28;20040;-77
2021/01/30 05:11:04;;;;;;;5.75;4.15;;;;;;;;;;5064094;28;20048;-77
2021/01/30 05:13:37;;;;;;;5.70;3.53;;;;;;;;;;5081881;28;20059;-76
2021/01/30 05:16:11;;;;;;;5.13;3.72;;;;;;;;;;5080930;28;20125;-76
2021/01/30 05:18:44;;;;;;;5.22;3.85;;;;;;;;;;5079982;28;20031;-76
2021/01/30 05:21:18;;;;;;;5.40;3.85;;;;;;;;;;5080945;28;20459;-76
2021/01/30 05:23:48;;;;;;;6.05;4.10;;;;;;;;;;5063714;28;20086;-76
2021/01/30 05:26:35;;;;;;;4.90;3.80;;;;;;;;;;5080863;28;20048;-76
2021/01/30 05:29:09;;;;;;;4.32;3.28;;;;;;;;;;5080687;28;20048;-76
2021/01/30 05:32:07;;;;;;;4.90;3.97;;;;;;;;;;5080873;28;20039;-76
2021/01/30 05:34:51;;;;;;;7.65;3.30;;;;;;;;;;5080417;28;20509;-76
2021/01/30 05:37:29;;;;;;;5.25;3.95;;;;;;;;;;5080432;28;20029;-76
2021/01/30 05:40:01;;;;;;;5.00;3.63;;;;;;;;;;5080775;28;20056;-76
2021/01/30 05:42:51;;;;;;;4.75;3.58;;;;;;;;;;5080676;28;20028;-76
2021/01/30 05:45:47;;;;;;;6.55;4.05;;;;;;;;;;5080481;28;20080;-76
2021/01/30 05:48:37;;;;;;;6.30;3.70;;;;;;;;;;5081144;28;20044;-76
2021/01/30 05:51:26;;;;;;;5.65;4.13;;;;;;;;;;5081522;28;20029;-76
2021/01/30 05:53:52;;;;;;;6.57;4.30;;;;;;;;;;5081442;28;20048;-76
2021/01/30 05:56:17;;;;;;;5.07;3.63;;;;;;;;;;5079883;28;20048;-76
2021/01/30 05:58:45;;;;;;;5.57;3.90;;;;;;;;;;5081862;28;20040;-76
2021/01/30 06:01:22;;;;;;;7.15;3.67;;;;;;;;;;5063428;28;20040;-76
2021/01/30 06:04:09;;;;;;;5.07;3.40;;;;;;;;;;5080666;28;20037;-76
2021/01/30 06:06:49;;;;;;;5.72;3.45;;;;;;;;;;5080805;28;20063;-76
2021/01/30 06:09:44;;;;;;;5.32;3.72;;;;;;;;;;5081366;28;20043;-76
2021/01/30 06:12:36;;;;;;;5.60;4.32;;;;;;;;;;5079737;28;20045;-76
2021/01/30 06:15:19;;;;;;;5.18;3.83;;;;;;;;;;5063386;28;20524;-76
2021/01/30 06:17:44;;;;;;;7.28;4.40;;;;;;;;;;5063201;28;20032;-76
2021/01/30 06:20:20;;;;;;;5.28;4.22;;;;;;;;;;5080860;28;20116;-76
2021/01/30 06:23:06;;;;;;;5.50;3.72;;;;;;;;;;5081337;28;20040;-76
2021/01/30 06:25:40;;;;;;;5.85;4.35;;;;;;;;;;5080968;28;20115;-76
2021/01/30 06:28:22;;;;;;;5.38;3.83;;;;;;;;;;5080765;28;20047;-76
2021/01/30 06:30:49;;;;;;;5.28;3.97;;;;;;;;;;5080367;28;20028;-75
2021/01/30 06:33:27;;;;;;;5.72;4.57;;;;;;;;;;5062539;28;20041;-76
2021/01/30 06:36:08;;;;;;;5.40;3.65;;;;;;;;;;5063040;28;20068;-75
2021/01/30 06:38:41;;;;;;;5.88;4.30;;;;;;;;;;5080025;28;20573;-75
2021/01/30 06:41:23;;;;;;;6.28;4.00;;;;;;;;;;5080201;28;20044;-75
2021/01/30 06:43:58;;;;;;;6.50;4.60;;;;;;;;;;5078617;28;20516;-75
2021/01/30 06:46:24;;;;;;;6.88;4.38;;;;;;;;;;5080077;28;20048;-76
2021/01/30 06:48:55;;;;;;;6.28;4.32;;;;;;;;;;5076642;28;20058;-76
2021/01/30 06:51:32;;;;;;;7.50;4.40;;;;;;;;;;5075187;28;20119;-75
2021/01/30 06:54:18;;;;;;;8.82;5.10;;;;;;;;;;5074963;28;20043;-75
2021/01/30 06:56:44;;;;;;;13.23;7.60;;;;;;;;;;5075740;28;20094;-75
2021/01/30 06:59:18;;;;;;;13.50;7.03;;;;;;;;;;5058952;28;20044;-75
2021/01/30 07:01:46;;;;;;;7.65;5.43;;;;;;;;;;5041921;28;20040;-75
2021/01/30 07:04:27;;;;;;;5.35;3.83;;;;;;;;;;5077079;28;20033;-75
2021/01/30 07:07:08;;;;;;;8.07;5.78;;;;;;;;;;5059567;28;20123;-76
2021/01/30 07:09:59;;;;;;;10.80;6.57;;;;;;;;;;5076768;28;20064;-76
2021/01/30 07:12:54;;;;;;;9.55;5.78;;;;;;;;;;5076145;28;20089;-75
2021/01/30 07:15:26;;;;;;;10.35;6.00;;;;;;;;;;5075774;28;20063;-76
2021/01/30 07:18:12;;;;;;;8.35;5.90;;;;;;;;;;5074958;28;20044;-74
2021/01/30 07:20:57;;;;;;;8.82;5.97;;;;;;;;;;5075854;28;20174;-75
2021/01/30 07:23:38;;;;;;;6.22;4.53;;;;;;;;;;5042325;28;20360;-76
2021/01/30 07:26:15;;;;;;;6.63;5.00;;;;;;;;;;5075568;28;20036;-75
2021/01/30 07:28:51;;;;;;;9.32;6.40;;;;;;;;;;5075755;28;20064;-73
2021/01/30 07:31:27;;;;;;;8.95;5.15;;;;;;;;;;5042285;28;20044;-76
2021/01/30 07:33:55;;;;;;;;;;;;;;;;;;5075944;28;20037;-76
2021/01/30 07:36:43;;;;;;;10.77;5.47;;;;;;;;;;5076943;28;19912;-77
2021/01/30 07:39:42;;;;;;;8.27;5.15;;;;;;;;;;5077635;28;20490;-75
2021/01/30 07:42:36;;;;;;;11.52;4.95;;;;;;;;;;5075945;28;20040;-75
2021/01/30 07:45:14;;;;;;;17.15;5.45;;;;;;;;;;5055841;28;20045;-76
2021/01/30 07:47:49;;;;;;;13.95;6.65;;;;;;;;;;5054691;28;20048;-76
2021/01/30 07:50:35;;;;;;;21.85;9.95;;;;;;;;;;5039152;28;20380;-76
2021/01/30 07:53:08;;;;;;;26.88;12.88;;;;;;;;;;5034413;28;20068;-76
2021/01/30 07:56:00;;;;;;;17.35;8.77;;;;;;;;;;5034093;28;20048;-76
2021/01/30 07:58:45;;;;;;;9.10;5.35;;;;;;;;;;5026432;28;20411;-77
2021/01/30 08:01:29;;;;;;;11.43;3.75;;;;;;;;;;5037104;28;20041;-77
2021/01/30 08:04:07;;;;;;;6.63;3.90;;;;;;;;;;5034901;28;20407;-76
2021/01/30 08:06:48;;;;;;;5.35;4.07;;;;;;;;;;5034291;28;20379;-75
2021/01/30 08:09:40;;;;;;;7.25;5.18;;;;;;;;;;5035617;28;20044;-76
2021/01/30 08:12:19;;;;;;;8.38;5.07;;;;;;;;;;5035198;28;20044;-75
2021/01/30 08:15:01;;;;;;;12.35;6.90;;;;;;;;;;5034096;28;20037;-74
2021/01/30 08:17:34;;;;;;;13.07;7.47;;;;;;;;;;5035288;28;20029;-74
2021/01/30 08:20:06;;;;;;;8.02;5.03;;;;;;;;;;5049104;28;20386;-73
2021/01/30 08:22:38;;;;;;;8.95;5.47;;;;;;;;;;5054197;28;20036;-74
2021/01/30 08:25:12;;;;;;;6.95;5.30;;;;;;;;;;5055409;28;20387;-73
2021/01/30 08:27:40;;;;;;;6.85;4.70;;;;;;;;;;5054984;28;20033;-73
2021/01/30 08:30:16;;;;;;;5.88;4.40;;;;;;;;;;5053037;28;20086;-73
2021/01/30 08:33:05;;;;;;;5.80;4.13;;;;;;;;;;5055367;28;20036;-74
2021/01/30 08:35:31;;;;;;;6.20;4.57;;;;;;;;;;5053810;28;20037;-73
2021/01/30 08:38:04;;;;;;;6.57;4.95;;;;;;;;;;5055462;28;20041;-73
2021/01/30 08:40:55;;;;;;;7.45;4.55;;;;;;;;;;5054386;28;20044;-73
2021/01/30 08:43:35;;;;;;;5.57;4.07;;;;;;;;;;5059780;28;20080;-73
2021/01/30 08:46:44;;;;;;;6.53;4.10;;;;;;;;;;5077030;28;20501;-73
2021/01/30 08:49:16;;;;;;;7.35;4.45;;;;;;;;;;5037197;28;20045;-74
2021/01/30 08:51:43;;;;;;;5.88;3.70;;;;;;;;;;5056279;28;20037;-73
2021/01/30 08:54:34;;;;;;;6.68;4.68;;;;;;;;;;5055895;28;20044;-74
2021/01/30 08:57:01;;;;;;;8.48;4.93;;;;;;;;;;5055750;28;20044;-74
2021/01/30 08:59:44;;;;;;;5.32;4.60;;;;;;;;;;5056326;28;20036;-74
2021/01/30 09:02:33;;;;;;;6.65;4.97;;;;;;;;;;5054566;28;20486;-74
2021/01/30 09:05:10;;;;;;;11.40;4.72;;;;;;;;;;5054018;28;20494;-74
2021/01/30 09:07:48;;;;;;;6.25;4.32;;;;;;;;;;5035691;28;20040;-74
2021/01/30 09:10:40;;;;;;;6.15;4.47;;;;;;;;;;5035431;28;20048;-74
2021/01/30 09:13:12;;;;;;;4.70;3.65;;;;;;;;;;5035759;28;20051;-75
2021/01/30 09:15:37;;;;;;;10.57;5.38;;;;;;;;;;5035471;28;20045;-74
2021/01/30 09:18:09;;;;;;;12.52;7.03;;;;;;;;;;5053250;28;20091;-74
2021/01/30 09:20:43;;;;;;;12.90;7.72;;;;;;;;;;5053441;28;20079;-75
2021/01/30 09:23:25;;;;;;;10.77;6.50;;;;;;;;;;5055306;28;20116;-75
2021/01/30 09:26:11;;;;;;;10.82;6.75;;;;;;;;;;5054902;28;20033;-74
2021/01/30 09:28:36;;;;;;;8.93;5.90;;;;;;;;;;5054517;28;20127;-74
2021/01/30 09:31:06;;;;;;;7.60;4.55;;;;;;;;;;5068873;28;20124;-74
2021/01/30 09:33:34;;;;;;;6.55;4.55;;;;;;;;;;5073122;28;20106;-73
2021/01/30 09:36:38;;;;;;;7.50;4.70;;;;;;;;;;5072988;28;20407;-75
2021/01/30 09:39:36;;;;;;;6.47;3.72;;;;;;;;;;4999147;28;20071;-76
2021/01/30 09:42:19;;;;;;;8.75;5.28;;;;;;;;;;5051432;28;20041;-75
2021/01/30 09:44:48;;;;;;;7.43;4.50;;;;;;;;;;5044927;28;20127;-76
2021/01/30 09:47:21;;;;;;;6.78;4.38;;;;;;;;;;5044788;28;20072;-76
2021/01/30 09:49:54;;;;;;;18.27;8.88;;;;;;;;;;5073198;28;20036;-78
2021/01/30 09:52:21;;;;;;;5.97;3.88;;;;;;;;;;5058958;28;20032;-78
2021/01/30 09:54:56;;;;;;;6.85;2.85;;;;;;;;;;5070539;28;20040;-79
2021/01/30 09:57:27;;;;;;;5.95;4.63;;;;;;;;;;5068200;28;20036;-79
2021/01/30 10:00:09;;;;;;;6.43;4.07;;;;;;;;;;5066171;28;20060;-77
2021/01/30 10:02:38;;;;;;;8.40;5.20;;;;;;;;;;5044974;28;20095;-76
2021/01/30 10:05:20;;;;;;;3.38;2.65;;;;;;;;;;5063796;28;20033;-77
2021/01/30 10:07:46;;;;;;;3.50;2.80;;;;;;;;;;5046612;28;20025;-79
2021/01/30 10:10:24;;;;;;;7.55;5.07;;;;;;;;;;5079435;28;20032;-79
2021/01/30 10:12:51;;;;;;;7.55;4.45;;;;;;;;;;5064754;28;20040;-79
2021/01/30 10:15:31;;;;;;;7.50;4.80;;;;;;;;;;5063317;28;20116;-77
2021/01/30 10:18:14;;;;;;;5.82;4.47;;;;;;;;;;5079231;28;20033;-79
2021/01/30 10:21:00;;;;;;;5.18;4.07;;;;;;;;;;5085593;28;20032;-79
2021/01/30 10:23:40;;;;;;;5.63;3.30;;;;;;;;;;5073684;28;20055;-78
2021/01/30 10:26:17;;;;;;;4.32;2.85;;;;;;;;;;5066179;28;20052;-78
2021/01/30 10:28:58;;;;;;;4.47;2.92;;;;;;;;;;5063794;28;20045;-79
2021/01/30 10:31:34;;;;;;;4.40;3.10;;;;;;;;;;5065534;28;20414;-79
2021/01/30 10:34:19;;;;;;;4.53;3.17;;;;;;;;;;5052828;28;20029;-79
2021/01/30 10:36:52;;;;;;;5.35;3.60;;;;;;;;;;5066722;28;20383;-77
2021/01/30 10:39:18;;;;;;;4.00;2.92;;;;;;;;;;5063021;28;20092;-82
2021/01/30 10:41:44;;;;;;;4.22;2.70;;;;;;;;;;5046339;28;20123;-77
2021/01/30 10:44:11;;;;;;;5.53;3.22;;;;;;;;;;5055053;28;20629;-78
2021/01/30 10:46:40;;;;;;;3.28;2.63;;;;;;;;;;5036674;28;20033;-77
2021/01/30 10:49:19;;;;;;;4.30;2.50;;;;;;;;;;5057519;28;20379;-79
2021/01/30 10:51:45;;;;;;;3.10;2.10;;;;;;;;;;5041265;28;20037;-81
2021/01/30 10:54:23;;;;;;;2.90;2.00;;;;;;;;;;5023864;28;20036;-76
2021/01/30 10:57:19;;;;;;;4.68;3.38;;;;;;;;;;5057674;28;20041;-78
2021/01/30 10:59:54;;;;;;;3.97;2.90;;;;;;;;;;5061950;28;20039;-79
2021/01/30 11:02:24;;;;;;;4.68;3.10;;;;;;;;;;5040623;28;20081;-76
2021/01/30 11:05:19;;;;;;;4.63;3.47;;;;;;;;;;5054837;28;20045;-75
2021/01/30 11:07:54;;;;;;;9.57;4.47;;;;;;;;;;5052983;28;20049;-75
2021/01/30 11:10:43;;;;;;;8.93;4.45;;;;;;;;;;5074139;28;20106;-75
2021/01/30 11:13:32;;;;;;;6.95;4.57;;;;;;;;;;5056579;28;20367;-75
2021/01/30 11:16:17;;;;;;;7.47;4.40;;;;;;;;;;5074443;28;20406;-75
2021/01/30 11:18:47;;;;;;;7.28;5.20;;;;;;;;;;5078669;28;20043;-74
2021/01/30 11:21:25;;;;;;;6.97;4.13;;;;;;;;;;5037846;28;20136;-74
2021/01/30 11:23:51;;;;;;;8.00;5.63;;;;;;;;;;5054427;28;20374;-74
2021/01/30 11:26:19;;;;;;;8.07;5.32;;;;;;;;;;5054699;28;20037;-75
2021/01/30 11:28:45;;;;;;;8.88;5.70;;;;;;;;;;5036946;28;20126;-74
2021/01/30 11:31:12;;;;;;;6.53;4.55;;;;;;;;;;5054474;28;20037;-75
2021/01/30 11:33:38;;;;;;;6.85;4.63;;;;;;;;;;5055015;28;20405;-78
2021/01/30 11:36:07;;;;;;;6.15;4.28;;;;;;;;;;5056161;28;20037;-77
2021/01/30 11:38:33;;;;;;;8.18;4.97;;;;;;;;;;5036971;28;20029;-77
2021/01/30 11:40:59;;;;;;;5.57;4.15;;;;;;;;;;5021861;28;20482;-78
2021/01/30 11:43:26;;;;;;;6.70;4.82;;;;;;;;;;5056496;28;20059;-77
2021/01/30 11:45:52;;;;;;;7.03;4.97;;;;;;;;;;5037449;28;20064;-76
2021/01/30 11:48:19;;;;;;;7.43;4.32;;;;;;;;;;5055510;28;20093;-76
2021/01/30 11:50:46;;;;;;;7.75;5.00;;;;;;;;;;5066359;28;20477;-75
2021/01/30 11:53:16;;;;;;;6.22;4.53;;;;;;;;;;5095984;28;20048;-78
2021/01/30 11:55:42;;;;;;;6.53;4.78;;;;;;;;;;5078860;28;20382;-79
2021/01/30 11:58:09;;;;;;;39.50;13.90;;;;;;;;;;5097766;28;20031;-78
2021/01/30 12:00:34;;;;;;;15.43;7.15;;;;;;;;;;5097226;28;20028;-79
2021/01/30 12:03:01;;;;;;;42.72;15.38;;;;;;;;;;5097978;28;20499;-79
2021/01/30 12:05:27;;;;;;;34.92;14.93;;;;;;;;;;5079374;28;20089;-78
2021/01/30 12:07:53;;;;;;;27.15;13.27;;;;;;;;;;5097187;28;20081;-78
2021/01/30 12:10:19;;;;;;;14.10;7.30;;;;;;;;;;5097562;28;20487;-78
2021/01/30 12:12:45;;;;;;;31.35;11.88;;;;;;;;;;5078511;28;20123;-77
2021/01/30 12:15:11;;;;;;;16.02;9.95;;;;;;;;;;5096223;28;20493;-78
2021/01/30 12:17:43;;;;;;;5.55;4.10;;;;;;;;;;5096492;28;20038;-77
2021/01/30 12:20:15;;;;;;;5.45;3.70;;;;;;;;;;5067325;28;20382;-77
2021/01/30 12:22:41;;;;;;;4.18;3.17;;;;;;;;;;5074848;28;20056;-78
2021/01/30 12:25:07;;;;;;;4.60;3.88;;;;;;;;;;5074568;28;20040;-78
2021/01/30 12:27:33;;;;;;;3.65;2.95;;;;;;;;;;5074533;28;20040;-78
2021/01/30 12:29:59;;;;;;;4.68;3.58;;;;;;;;;;5057155;28;20114;-78
2021/01/30 12:32:24;;;;;;;6.55;4.10;;;;;;;;;;5074197;28;20071;-78
2021/01/30 12:34:50;;;;;;;4.13;3.13;;;;;;;;;;5074814;28;20028;-78
2021/01/30 12:37:15;;;;;;;4.70;3.35;;;;;;;;;;5074628;28;20458;-77
2021/01/30 12:39:40;;;;;;;3.58;3.00;;;;;;;;;;5055691;28;20032;-77
2021/01/30 12:42:06;;;;;;;4.72;3.28;;;;;;;;;;5074490;28;20037;-77
2021/01/30 12:44:31;;;;;;;4.90;3.70;;;;;;;;;;5073910;28;20052;-77
2021/01/30 12:46:57;;;;;;;3.97;3.33;;;;;;;;;;5073943;28;20037;-77
2021/01/30 12:49:22;;;;;;;4.78;3.10;;;;;;;;;;5073107;28;20040;-77
2021/01/30 12:51:48;;;;;;;6.28;4.38;;;;;;;;;;5073722;28;20046;-77
2021/01/30 12:54:19;;;;;;;6.47;4.93;;;;;;;;;;5073785;28;20142;-77
2021/01/30 12:56:46;;;;;;;10.82;7.25;;;;;;;;;;5073612;28;20032;-77
2021/01/30 12:59:13;;;;;;;9.18;7.80;;;;;;;;;;5073346;28;20032;-77
2021/01/30 13:01:38;;;;;;;9.15;8.20;;;;;;;;;;5073313;28;20056;-77
2021/01/30 13:04:04;;;;;;;10.60;7.55;;;;;;;;;;5073371;28;20110;-77
2021/01/30 13:06:30;;;;;;;10.93;8.70;;;;;;;;;;5055157;28;20036;-77
2021/01/30 13:08:55;;;;;;;10.13;7.10;;;;;;;;;;5073370;28;20418;-77
2021/01/30 13:11:20;;;;;;;5.80;4.03;;;;;;;;;;5073311;28;20086;-77
2021/01/30 13:13:46;;;;;;;5.80;4.50;;;;;;;;;;5055161;28;20036;-77
2021/01/30 13:16:12;;;;;;;5.88;3.97;;;;;;;;;;5073030;28;20056;-77
2021/01/30 13:18:38;;;;;;;5.55;4.28;;;;;;;;;;5060541;28;20438;-77
2021/01/30 13:21:06;;;;;;;5.07;3.88;;;;;;;;;;5097719;28;20031;-77
2021/01/30 13:23:35;;;;;;;4.80;3.45;;;;;;;;;;5078841;28;20067;-77
2021/01/30 13:26:02;;;;;;;5.78;3.45;;;;;;;;;;5096971;28;20040;-77
2021/01/30 13:28:28;;;;;;;4.55;4.00;;;;;;;;;;5096918;28;20036;-77
2021/01/30 13:30:54;;;;;;;13.63;10.43;;;;;;;;;;5096586;28;20077;-76
2021/01/30 13:33:22;;;;;;;5.82;3.67;;;;;;;;;;5096957;28;20450;-77
2021/01/30 13:35:48;;;;;;;6.30;4.43;;;;;;;;;;5096908;28;20067;-76
2021/01/30 13:38:13;;;;;;;6.88;4.13;;;;;;;;;;5096599;28;20040;-77
2021/01/30 13:40:39;;;;;;;6.93;5.40;;;;;;;;;;5078635;28;20043;-77
2021/01/30 13:43:06;;;;;;;35.33;14.73;;;;;;;;;;5096763;28;20024;-77
2021/01/30 13:45:32;;;;;;;21.65;9.43;;;;;;;;;;5096582;28;20032;-76
2021/01/30 13:47:58;;;;;;;49.97;19.05;;;;;;;;;;5096460;28;20036;-76
2021/01/30 13:50:24;;;;;;;36.35;14.40;;;;;;;;;;5078061;28;20077;-76
2021/01/30 13:52:49;;;;;;;33.42;12.85;;;;;;;;;;5076159;28;20464;-76
2021/01/30 13:55:16;;;;;;;31.88;11.85;;;;;;;;;;5076258;28;20619;-76
2021/01/30 13:57:42;;;;;;;43.30;15.30;;;;;;;;;;5076057;28;20459;-77
2021/01/30 14:00:10;;;;;;;40.45;16.17;;;;;;;;;;5076118;28;20024;-77
2021/01/30 14:02:37;;;;;;;26.35;11.40;;;;;;;;;;5058090;28;20086;-77
2021/01/30 14:05:06;;;;;;;17.00;8.05;;;;;;;;;;5076073;28;20086;-76
2021/01/30 14:07:31;;;;;;;8.13;4.68;;;;;;;;;;5076004;28;20024;-76
2021/01/30 14:09:56;;;;;;;24.85;10.20;;;;;;;;;;5076059;28;20429;-76
2021/01/30 14:12:22;;;;;;;14.60;6.20;;;;;;;;;;5075751;28;20040;-76
2021/01/30 14:14:47;;;;;;;24.20;10.10;;;;;;;;;;5075797;28;20048;-77
2021/01/30 14:17:13;;;;;;;23.98;10.25;;;;;;;;;;5075768;28;20036;-77
2021/01/30 14:19:38;;;;;;;26.75;10.20;;;;;;;;;;5075888;28;20040;-77
2021/01/30 14:22:03;;;;;;;16.35;7.43;;;;;;;;;;5057624;28;20090;-77
2021/01/30 14:24:29;;;;;;;7.75;4.72;;;;;;;;;;5075490;28;20089;-77
2021/01/30 14:26:54;;;;;;;4.78;3.75;;;;;;;;;;5075573;28;20474;-77
2021/01/30 14:29:20;;;;;;;8.50;4.72;;;;;;;;;;5057041;28;20032;-77
2021/01/30 14:31:46;;;;;;;5.53;3.78;;;;;;;;;;5075407;28;20040;-77
2021/01/30 14:34:12;;;;;;;8.40;4.53;;;;;;;;;;5057417;28;20040;-77
2021/01/30 14:36:38;;;;;;;13.27;6.78;;;;;;;;;;5075511;28;20041;-77
2021/01/30 14:39:05;;;;;;;20.63;10.57;;;;;;;;;;5075433;28;20036;-77
2021/01/30 14:41:31;;;;;;;16.63;9.15;;;;;;;;;;5075397;28;20047;-76
2021/01/30 14:43:56;;;;;;;11.35;7.35;;;;;;;;;;5075220;28;20049;-76
2021/01/30 14:46:22;;;;;;;13.98;9.15;;;;;;;;;;5075439;28;20082;-76
2021/01/30 14:48:47;;;;;;;24.73;12.32;;;;;;;;;;5074124;28;20451;-76
2021/01/30 14:51:12;;;;;;;14.80;8.15;;;;;;;;;;5075138;28;20089;-76
2021/01/30 14:53:38;;;;;;;11.98;7.20;;;;;;;;;;5075322;28;20036;-76
2021/01/30 14:56:03;;;;;;;13.70;6.65;;;;;;;;;;5075159;28;20110;-77
2021/01/30 14:58:29;;;;;;;14.35;5.68;;;;;;;;;;5075150;28;20023;-76
2021/01/30 15:00:54;;;;;;;16.38;6.18;;;;;;;;;;5074989;28;20071;-76
2021/01/30 15:03:20;;;;;;;17.73;6.43;;;;;;;;;;5057080;28;20462;-75
2021/01/30 15:05:45;;;;;;;20.17;9.13;;;;;;;;;;5057067;28;20115;-76
2021/01/30 15:08:11;;;;;;;19.23;7.85;;;;;;;;;;5074727;28;20046;-77
2021/01/30 15:10:36;;;;;;;7.30;4.47;;;;;;;;;;5074505;28;20090;-77